Time;durP1;ratioP1;P1;durP2;ratioP2;P2;SDS_P1;SDS_P2;PMS_P1;PMS_P2;Temp;Humidity;BMP_temperature;BMP_pressure;BME280_temperature;BME280_humidity;BME280_pressure;Samples;Min_cycle;Max_cycle;Signal;HPM_P1;HPM_P2
2024/03/07 00:00:45;;;;;;;15.68;9.25;;;10.80;95.70;;;;;;5095758;28;20114;-78
2024/03/07 00:03:14;;;;;;;19.13;8.70;;;10.80;95.20;;;;;;5089980;28;20771;-79
2024/03/07 00:05:39;;;;;;;15.45;8.85;;;10.80;95.30;;;;;;5103807;28;20031;-78
2024/03/07 00:08:06;;;;;;;16.52;9.35;;;10.80;95.30;;;;;;5100438;28;20032;-78
2024/03/07 00:10:31;;;;;;;14.07;7.47;;;10.80;95.30;;;;;;5092521;28;20478;-79
2024/03/07 00:12:57;;;;;;;13.43;9.02;;;10.80;95.30;;;;;;5098278;28;20084;-79
2024/03/07 00:15:27;;;;;;;18.10;9.13;;;10.70;95.30;;;;;;5100428;28;20630;-79
2024/03/07 00:17:53;;;;;;;19.15;9.70;;;10.70;95.20;;;;;;5107185;27;20092;-79
2024/03/07 00:20:20;;;;;;;18.20;9.95;;;10.70;95.20;;;;;;5099029;28;20032;-78
2024/03/07 00:22:45;;;;;;;18.13;9.40;;;10.70;95.20;;;;;;5087262;28;20040;-79
2024/03/07 00:25:19;;;;;;;15.15;9.27;;;10.70;95.10;;;;;;5089722;28;20069;-79
2024/03/07 00:27:45;;;;;;;14.25;8.13;;;10.70;95.20;;;;;;5090791;28;20476;-79
2024/03/07 00:30:13;;;;;;;19.60;9.85;;;10.70;95.20;;;;;;5090475;28;20071;-78
2024/03/07 00:32:40;;;;;;;18.40;9.10;;;10.70;95.10;;;;;;5087401;28;20043;-78
2024/03/07 00:35:08;;;;;;;16.15;9.57;;;10.70;95.20;;;;;;5089150;28;20169;-79
2024/03/07 00:37:35;;;;;;;17.88;9.98;;;10.60;95.10;;;;;;5095438;28;20031;-79
2024/03/07 00:40:00;;;;;;;15.18;8.82;;;10.60;95.10;;;;;;5091861;28;20732;-79
2024/03/07 00:42:27;;;;;;;17.00;9.85;;;10.70;95.00;;;;;;5089623;28;20030;-79
2024/03/07 00:44:53;;;;;;;15.35;8.88;;;10.60;95.00;;;;;;5096971;28;20047;-79
2024/03/07 00:47:18;;;;;;;16.23;8.85;;;10.70;95.00;;;;;;5096307;28;20024;-79
2024/03/07 00:49:47;;;;;;;17.75;9.35;;;10.60;95.10;;;;;;5095122;28;20040;-78
2024/03/07 00:52:14;;;;;;;14.73;8.75;;;10.60;95.10;;;;;;5089791;28;20066;-79
2024/03/07 00:54:39;;;;;;;17.55;9.15;;;10.50;95.10;;;;;;5103343;28;20487;-78
2024/03/07 00:57:05;;;;;;;13.32;8.10;;;10.60;95.10;;;;;;5088956;28;20031;-78
2024/03/07 00:59:31;;;;;;;18.17;9.00;;;10.60;95.10;;;;;;5102230;28;20114;-79
2024/03/07 01:01:56;;;;;;;16.25;9.63;;;10.50;95.10;;;;;;5089281;28;20032;-78
2024/03/07 01:04:30;;;;;;;17.08;8.98;;;10.50;95.00;;;;;;5100295;28;20039;-78
2024/03/07 01:06:57;;;;;;;14.48;8.80;;;10.50;95.00;;;;;;5088243;28;20040;-79
2024/03/07 01:09:23;;;;;;;17.23;9.55;;;10.50;95.00;;;;;;5088160;28;20035;-78
2024/03/07 01:11:49;;;;;;;19.35;8.32;;;10.50;95.00;;;;;;5102047;28;20387;-79
2024/03/07 01:14:18;;;;;;;20.40;9.85;;;10.50;95.00;;;;;;5090011;28;20044;-78
2024/03/07 01:16:43;;;;;;;14.45;9.40;;;10.50;95.00;;;;;;5108865;27;20138;-78
2024/03/07 01:19:09;;;;;;;16.02;8.10;;;10.50;95.00;;;;;;5106610;28;20110;-79
2024/03/07 01:21:35;;;;;;;16.20;8.60;;;10.50;94.90;;;;;;5090273;28;20107;-79
2024/03/07 01:24:04;;;;;;;14.63;9.38;;;10.40;94.90;;;;;;5086388;28;20040;-78
2024/03/07 01:26:29;;;;;;;16.38;8.63;;;10.40;94.70;;;;;;5089148;28;20367;-78
2024/03/07 01:28:58;;;;;;;16.33;9.18;;;10.40;94.80;;;;;;5087351;28;20089;-78
2024/03/07 01:31:24;;;;;;;16.73;8.95;;;10.40;94.70;;;;;;5097169;28;20072;-78
2024/03/07 01:33:50;;;;;;;16.95;8.73;;;10.40;94.60;;;;;;5099611;28;20039;-79
2024/03/07 01:36:15;;;;;;;13.18;7.95;;;10.40;94.50;;;;;;5088122;28;20032;-78
2024/03/07 01:38:42;;;;;;;16.75;9.32;;;10.50;94.40;;;;;;5100605;28;20028;-78
2024/03/07 01:41:08;;;;;;;12.10;7.78;;;10.40;94.40;;;;;;5088453;28;20439;-78
2024/03/07 01:43:33;;;;;;;17.55;9.40;;;10.40;94.40;;;;;;5087757;28;20139;-79
2024/03/07 01:45:59;;;;;;;19.55;9.77;;;10.40;94.30;;;;;;5086897;28;20046;-79
2024/03/07 01:48:31;;;;;;;15.40;8.98;;;10.40;94.40;;;;;;5092379;28;20024;-78
2024/03/07 01:51:00;;;;;;;16.77;9.00;;;10.30;94.40;;;;;;5102053;28;20391;-79
2024/03/07 01:53:28;;;;;;;16.58;9.05;;;10.30;94.50;;;;;;5096392;28;20028;-78
2024/03/07 01:55:54;;;;;;;16.48;8.95;;;10.20;94.40;;;;;;5087781;28;20115;-79
2024/03/07 01:58:21;;;;;;;15.82;8.90;;;10.20;94.60;;;;;;5106773;28;20073;-79
2024/03/07 02:00:47;;;;;;;16.48;9.23;;;10.20;94.50;;;;;;5090019;28;20036;-78
2024/03/07 02:03:19;;;;;;;19.33;8.98;;;10.20;94.50;;;;;;5101181;28;20038;-78
2024/03/07 02:05:44;;;;;;;14.95;8.40;;;10.20;94.50;;;;;;5100919;28;20081;-79
2024/03/07 02:08:11;;;;;;;14.35;8.90;;;10.10;94.40;;;;;;5105585;28;20402;-78
2024/03/07 02:10:36;;;;;;;16.90;9.95;;;10.10;94.30;;;;;;5102654;28;20368;-79
2024/03/07 02:13:02;;;;;;;14.02;8.75;;;10.10;94.20;;;;;;5085599;28;20098;-79
2024/03/07 02:15:28;;;;;;;15.35;8.70;;;10.10;94.20;;;;;;5089461;28;20458;-79
2024/03/07 02:17:54;;;;;;;14.65;9.35;;;10.10;94.20;;;;;;5111863;28;20024;-79
2024/03/07 02:20:20;;;;;;;15.80;9.50;;;10.00;94.40;;;;;;5088243;28;20360;-79
2024/03/07 02:22:46;;;;;;;17.98;9.73;;;10.00;94.30;;;;;;5095219;28;20487;-79
2024/03/07 02:25:12;;;;;;;16.92;10.07;;;10.00;94.60;;;;;;5087389;28;20092;-78
2024/03/07 02:27:38;;;;;;;16.10;9.90;;;9.90;94.40;;;;;;5091897;28;20023;-79
2024/03/07 02:30:08;;;;;;;14.43;9.70;;;9.90;94.40;;;;;;5086176;28;20491;-79
2024/03/07 02:32:37;;;;;;;16.55;8.75;;;9.90;94.20;;;;;;5086249;28;20475;-78
2024/03/07 02:35:04;;;;;;;18.05;9.68;;;9.90;94.30;;;;;;5097723;28;20093;-78
2024/03/07 02:37:31;;;;;;;16.17;9.00;;;9.80;94.40;;;;;;5101698;28;20032;-78
2024/03/07 02:39:56;;;;;;;16.73;9.57;;;9.80;94.50;;;;;;5096168;28;20490;-79
2024/03/07 02:42:22;;;;;;;18.73;9.00;;;9.80;94.50;;;;;;5091424;28;20032;-78
2024/03/07 02:44:47;;;;;;;15.02;8.85;;;9.80;94.50;;;;;;5093978;28;20483;-79
2024/03/07 02:47:13;;;;;;;16.45;10.18;;;9.70;94.50;;;;;;5091214;28;20032;-79
2024/03/07 02:49:39;;;;;;;16.83;9.88;;;9.70;94.60;;;;;;5102673;28;20627;-78
2024/03/07 02:52:08;;;;;;;15.68;9.60;;;9.70;94.60;;;;;;5092474;28;20043;-79
2024/03/07 02:54:34;;;;;;;18.65;9.75;;;9.60;94.70;;;;;;5091413;28;20101;-78
2024/03/07 02:57:00;;;;;;;15.52;9.23;;;9.60;94.70;;;;;;5104834;28;20070;-79
2024/03/07 02:59:26;;;;;;;16.90;9.25;;;9.60;94.70;;;;;;5094073;28;20161;-79
2024/03/07 03:01:51;;;;;;;15.57;9.50;;;9.50;94.50;;;;;;5092619;28;20911;-78
2024/03/07 03:04:17;;;;;;;15.15;8.93;;;9.50;94.50;;;;;;5102509;27;20076;-79
2024/03/07 03:06:43;;;;;;;15.25;9.10;;;9.50;94.40;;;;;;5105080;27;20042;-78
2024/03/07 03:09:13;;;;;;;17.35;9.68;;;9.50;94.40;;;;;;5111084;27;20031;-79
2024/03/07 03:11:39;;;;;;;20.83;9.80;;;9.50;94.40;;;;;;5104440;27;20379;-78
2024/03/07 03:14:05;;;;;;;16.35;9.35;;;9.50;94.40;;;;;;5105347;27;20043;-78
2024/03/07 03:16:31;;;;;;;20.55;11.35;;;9.50;94.50;;;;;;5096573;28;20020;-78
2024/03/07 03:18:57;;;;;;;15.57;9.02;;;9.40;94.40;;;;;;5096861;28;20032;-78
2024/03/07 03:21:23;;;;;;;19.83;9.63;;;9.40;94.30;;;;;;5111013;27;20036;-79
2024/03/07 03:23:49;;;;;;;16.08;8.95;;;9.40;94.30;;;;;;5103286;28;20039;-79
2024/03/07 03:26:15;;;;;;;16.83;9.25;;;9.40;94.50;;;;;;5097230;28;20039;-78
2024/03/07 03:28:41;;;;;;;14.00;9.05;;;9.40;94.20;;;;;;5095656;28;20073;-78
2024/03/07 03:31:08;;;;;;;16.50;9.48;;;9.30;94.40;;;;;;5096748;28;20093;-79
2024/03/07 03:33:35;;;;;;;16.15;9.05;;;9.30;94.60;;;;;;5093156;28;20119;-79
2024/03/07 03:36:00;;;;;;;15.82;9.70;;;9.30;94.70;;;;;;5098074;28;20476;-79
2024/03/07 03:38:26;;;;;;;20.42;9.77;;;9.20;94.90;;;;;;5089122;28;20043;-79
2024/03/07 03:40:52;;;;;;;14.82;9.32;;;9.10;94.80;;;;;;5100599;28;20362;-79
2024/03/07 03:43:20;;;;;;;17.85;9.82;;;9.10;95.10;;;;;;5108122;28;20057;-79
2024/03/07 03:45:48;;;;;;;15.50;9.50;;;9.10;94.80;;;;;;5094270;28;20031;-79
2024/03/07 03:48:14;;;;;;;15.35;9.45;;;9.10;94.90;;;;;;5099754;28;20085;-78
2024/03/07 03:50:41;;;;;;;15.45;9.43;;;9.00;94.90;;;;;;5089552;28;20024;-79
2024/03/07 03:53:09;;;;;;;14.90;9.32;;;9.00;94.80;;;;;;5095186;28;20042;-79
2024/03/07 03:55:35;;;;;;;16.45;10.25;;;9.00;94.90;;;;;;5100354;28;20109;-79
2024/03/07 03:58:00;;;;;;;17.42;9.32;;;9.00;95.00;;;;;;5101519;28;20024;-79
2024/03/07 04:00:26;;;;;;;19.23;9.75;;;8.90;94.90;;;;;;5103600;28;20528;-79
2024/03/07 04:02:52;;;;;;;20.77;11.10;;;8.90;94.90;;;;;;5108389;28;20562;-78
2024/03/07 04:05:19;;;;;;;15.82;9.77;;;8.90;94.80;;;;;;5098279;28;20049;-79
2024/03/07 04:07:45;;;;;;;17.35;10.55;;;8.90;94.90;;;;;;5098551;28;20352;-79
2024/03/07 04:10:12;;;;;;;18.55;11.02;;;8.80;94.90;;;;;;5106837;28;20039;-79
2024/03/07 04:12:40;;;;;;;19.33;10.63;;;8.80;95.00;;;;;;5105394;28;20028;-79
2024/03/07 04:15:08;;;;;;;19.02;10.90;;;8.80;95.10;;;;;;5107807;28;20058;-79
2024/03/07 04:17:34;;;;;;;15.38;9.98;;;8.70;95.00;;;;;;5097408;28;20032;-79
2024/03/07 04:20:01;;;;;;;22.33;10.95;;;8.70;94.90;;;;;;5101607;28;20032;-78
2024/03/07 04:22:27;;;;;;;20.55;11.20;;;8.70;95.00;;;;;;5090126;28;20028;-80
2024/03/07 04:24:56;;;;;;;17.27;10.50;;;8.70;95.00;;;;;;5086755;28;20027;-79
2024/03/07 04:27:22;;;;;;;19.27;11.02;;;8.60;94.90;;;;;;5092073;28;20085;-79
2024/03/07 04:29:48;;;;;;;16.40;9.02;;;8.60;95.00;;;;;;5088580;28;20044;-79
2024/03/07 04:32:14;;;;;;;21.80;11.38;;;8.60;95.00;;;;;;5096033;28;20467;-79
2024/03/07 04:34:40;;;;;;;17.88;11.55;;;8.60;95.00;;;;;;5088734;28;20044;-79
2024/03/07 04:37:06;;;;;;;20.70;11.75;;;8.60;95.10;;;;;;5088260;28;20024;-78
2024/03/07 04:39:34;;;;;;;21.95;12.65;;;8.50;95.00;;;;;;5097222;28;20076;-79
2024/03/07 04:42:03;;;;;;;28.30;12.82;;;8.50;95.00;;;;;;5089607;28;20072;-81
2024/03/07 04:44:29;;;;;;;19.58;11.68;;;8.50;95.10;;;;;;5096309;28;20505;-79
2024/03/07 04:46:56;;;;;;;24.10;12.73;;;8.50;95.10;;;;;;5101447;28;20032;-79
2024/03/07 04:49:23;;;;;;;21.08;12.13;;;8.50;95.10;;;;;;5091810;28;20028;-79
2024/03/07 04:51:54;;;;;;;21.23;12.63;;;8.40;95.10;;;;;;5092987;28;20153;-79
2024/03/07 04:54:20;;;;;;;23.48;12.77;;;8.40;95.10;;;;;;5094115;28;20047;-79
2024/03/07 04:56:47;;;;;;;22.60;12.25;;;8.40;95.00;;;;;;5097517;28;20023;-79
2024/03/07 04:59:13;;;;;;;22.27;12.35;;;8.40;95.00;;;;;;5104762;28;20479;-79
2024/03/07 05:01:39;;;;;;;26.02;13.70;;;8.40;94.90;;;;;;5097697;28;20074;-79
2024/03/07 05:04:09;;;;;;;24.58;14.48;;;8.40;95.00;;;;;;5092480;28;20034;-79
2024/03/07 05:06:35;;;;;;;27.80;14.05;;;8.40;95.00;;;;;;5107724;28;20128;-79
2024/03/07 05:09:04;;;;;;;31.38;14.95;;;8.30;95.10;;;;;;5102001;28;20028;-79
2024/03/07 05:11:31;;;;;;;24.70;14.15;;;8.30;95.10;;;;;;5089863;28;20111;-79
2024/03/07 05:13:57;;;;;;;24.80;14.35;;;8.30;95.10;;;;;;5096984;28;20081;-79
2024/03/07 05:16:27;;;;;;;27.23;15.32;;;8.20;95.10;;;;;;5087925;28;20536;-80
2024/03/07 05:18:53;;;;;;;26.13;14.85;;;8.20;95.20;;;;;;5088281;28;20038;-81
2024/03/07 05:24:08;;;;;;;28.02;15.60;;;8.20;95.20;;;;;;5101065;28;20039;-79
2024/03/07 05:26:40;;;;;;;27.95;14.88;;;8.10;95.30;;;;;;5102029;28;20063;-79
2024/03/07 05:29:10;;;;;;;35.15;17.73;;;8.10;95.30;;;;;;5096669;28;20036;-80
2024/03/07 05:31:38;;;;;;;35.88;18.52;;;8.00;95.40;;;;;;5096923;28;20023;-80
2024/03/07 05:34:09;;;;;;;34.25;16.92;;;7.90;95.30;;;;;;5088343;28;20459;-79
2024/03/07 05:36:35;;;;;;;33.83;15.80;;;7.90;95.50;;;;;;5093220;28;20141;-79
2024/03/07 05:39:10;;;;;;;27.48;14.05;;;7.90;95.50;;;;;;5099175;28;20052;-76
2024/03/07 05:41:36;;;;;;;32.70;16.00;;;7.90;95.40;;;;;;5093994;28;20107;-80
2024/03/07 05:44:02;;;;;;;38.95;19.95;;;7.70;95.40;;;;;;5086707;28;20463;-80
2024/03/07 05:46:28;;;;;;;35.70;18.05;;;7.70;95.80;;;;;;5089371;28;20070;-82
2024/03/07 05:48:56;;;;;;;35.92;19.15;;;7.70;95.80;;;;;;5088463;28;20060;-79
2024/03/07 05:51:24;;;;;;;34.00;18.10;;;7.70;95.80;;;;;;5088020;28;20036;-80
2024/03/07 05:53:50;;;;;;;33.25;17.17;;;7.70;95.90;;;;;;5101564;28;20060;-78
2024/03/07 05:56:16;;;;;;;39.10;20.15;;;7.70;95.80;;;;;;5106950;28;20043;-79
2024/03/07 05:58:41;;;;;;;31.90;16.50;;;7.70;95.80;;;;;;5107634;28;20032;-79
2024/03/07 06:01:10;;;;;;;44.35;19.25;;;7.70;95.80;;;;;;5099852;28;20028;-78
2024/03/07 06:03:35;;;;;;;40.83;18.50;;;7.70;95.80;;;;;;5087995;28;21144;-79
2024/03/07 06:06:01;;;;;;;43.35;19.27;;;7.60;95.90;;;;;;5097377;28;20035;-79
2024/03/07 06:08:27;;;;;;;53.33;19.77;;;7.60;95.90;;;;;;5091813;28;20028;-79
2024/03/07 06:10:53;;;;;;;43.53;19.27;;;7.60;96.30;;;;;;5091259;28;20035;-79
2024/03/07 06:13:19;;;;;;;44.25;16.10;;;7.60;95.90;;;;;;5105313;28;20467;-79
2024/03/07 06:15:46;;;;;;;45.03;18.98;;;7.60;96.00;;;;;;5093215;28;20050;-79
2024/03/07 06:18:15;;;;;;;43.15;19.00;;;7.60;96.00;;;;;;5092707;28;20043;-79
2024/03/07 06:20:42;;;;;;;46.45;21.08;;;7.50;96.10;;;;;;5091085;28;20028;-81
2024/03/07 06:23:08;;;;;;;37.80;20.23;;;7.50;95.90;;;;;;5099244;28;20034;-80
2024/03/07 06:25:37;;;;;;;50.88;20.02;;;7.40;96.30;;;;;;5105862;28;20035;-80
2024/03/07 06:28:09;;;;;;;46.50;22.25;;;7.30;96.30;;;;;;5096418;28;20038;-82
2024/03/07 06:30:39;;;;;;;45.05;21.27;;;7.30;96.40;;;;;;5102005;28;20028;-79
2024/03/07 06:33:06;;;;;;;37.08;18.02;;;7.30;96.50;;;;;;5101276;28;20039;-80
2024/03/07 06:35:35;;;;;;;45.75;19.48;;;7.30;96.40;;;;;;5101116;28;20689;-79
2024/03/07 06:38:00;;;;;;;77.55;19.17;;;7.30;96.40;;;;;;5099849;28;20126;-80
2024/03/07 06:40:26;;;;;;;54.80;20.05;;;7.30;96.40;;;;;;5096150;28;20118;-79
2024/03/07 06:42:52;;;;;;;53.65;18.45;;;7.20;96.50;;;;;;5093434;28;20596;-78
2024/03/07 06:45:18;;;;;;;47.47;20.35;;;7.30;96.60;;;;;;5099975;28;20040;-81
2024/03/07 06:47:44;;;;;;;81.82;16.70;;;7.20;96.50;;;;;;5102615;28;20425;-80
2024/03/07 06:50:14;;;;;;;90.00;19.58;;;7.20;96.40;;;;;;5097024;28;20032;-79
2024/03/07 06:52:40;;;;;;;37.00;16.48;;;7.20;96.70;;;;;;5108145;28;20035;-78
2024/03/07 06:55:07;;;;;;;44.80;16.42;;;7.10;96.60;;;;;;5098694;28;20502;-78
2024/03/07 06:57:36;;;;;;;40.97;14.82;;;7.20;96.70;;;;;;5102054;28;20118;-78
2024/03/07 07:00:10;;;;;;;25.25;9.40;;;7.20;96.70;;;;;;5096707;28;20039;-79
2024/03/07 07:02:37;;;;;;;78.03;22.83;;;7.30;96.70;;;;;;5100871;28;20086;-78
2024/03/07 07:05:10;;;;;;;58.38;18.60;;;7.20;96.70;;;;;;5099094;28;20035;-79
2024/03/07 07:07:37;;;;;;;67.10;16.50;;;7.20;96.70;;;;;;5097163;28;20372;-78
2024/03/07 07:10:02;;;;;;;42.00;12.30;;;7.20;96.70;;;;;;5107970;28;20050;-78
2024/03/07 07:12:29;;;;;;;61.05;16.33;;;7.20;96.50;;;;;;5094131;28;20028;-78
2024/03/07 07:14:55;;;;;;;63.10;15.60;;;7.10;96.80;;;;;;5103186;28;20157;-80
2024/03/07 07:17:20;;;;;;;70.63;17.35;;;7.00;96.90;;;;;;5102645;28;20495;-77
2024/03/07 07:19:46;;;;;;;82.85;17.50;;;7.10;97.20;;;;;;5088070;28;20027;-80
2024/03/07 07:22:12;;;;;;;96.50;17.08;;;7.20;96.80;;;;;;5095615;28;20475;-79
2024/03/07 07:24:38;;;;;;;62.22;15.98;;;7.20;96.80;;;;;;5093091;28;20372;-79
2024/03/07 07:27:04;;;;;;;42.35;14.35;;;7.10;96.60;;;;;;5101706;28;20057;-79
2024/03/07 07:29:29;;;;;;;55.65;17.77;;;7.00;96.90;;;;;;5092873;28;20123;-77
2024/03/07 07:31:56;;;;;;;38.10;15.93;;;7.10;96.90;;;;;;5096904;28;20019;-77
2024/03/07 07:34:21;;;;;;;110.28;17.92;;;7.10;96.90;;;;;;5098157;28;20040;-78
2024/03/07 07:36:47;;;;;;;43.25;12.75;;;7.10;96.80;;;;;;5096307;28;20059;-78
2024/03/07 07:39:16;;;;;;;71.50;17.65;;;7.10;96.70;;;;;;5091841;28;20353;-77
2024/03/07 07:41:45;;;;;;;65.18;17.70;;;7.20;96.70;;;;;;5101866;28;20454;-78
2024/03/07 07:44:10;;;;;;;72.65;17.60;;;7.20;96.70;;;;;;5097435;28;20032;-79
2024/03/07 07:46:36;;;;;;;73.72;19.80;;;7.20;96.70;;;;;;5100847;28;20103;-80
2024/03/07 07:49:02;;;;;;;38.13;17.60;;;7.30;96.60;;;;;;5098210;28;20032;-78
2024/03/07 07:51:34;;;;;;;25.00;12.23;;;7.30;96.60;;;;;;5098106;28;20020;-78
2024/03/07 07:53:59;;;;;;;29.98;13.05;;;7.30;96.40;;;;;;5105861;28;20051;-77
2024/03/07 07:56:28;;;;;;;42.67;16.05;;;7.20;96.70;;;;;;5098342;28;20023;-78
2024/03/07 07:58:54;;;;;;;58.35;17.38;;;7.20;96.60;;;;;;5110543;28;20115;-79
2024/03/07 08:01:19;;;;;;;50.30;19.65;;;7.20;96.40;;;;;;5117063;28;20051;-77
2024/03/07 08:03:45;;;;;;;56.65;16.63;;;7.30;96.70;;;;;;5103600;28;20467;-78
2024/03/07 08:06:11;;;;;;;22.20;11.05;;;7.20;96.50;;;;;;5104037;28;20436;-78
2024/03/07 08:08:37;;;;;;;35.67;14.73;;;7.20;96.50;;;;;;5093657;28;20400;-78
2024/03/07 08:11:05;;;;;;;27.98;15.23;;;7.10;96.70;;;;;;5097537;28;20106;-78
2024/03/07 08:13:31;;;;;;;34.10;15.07;;;7.20;96.50;;;;;;5101360;28;20364;-78
2024/03/07 08:15:57;;;;;;;33.08;13.52;;;7.20;96.50;;;;;;5091622;28;20043;-77
2024/03/07 08:18:22;;;;;;;35.22;12.30;;;7.10;96.50;;;;;;5100168;28;20028;-78
2024/03/07 08:20:49;;;;;;;33.22;15.77;;;7.20;96.60;;;;;;5100720;28;20027;-77
2024/03/07 08:23:14;;;;;;;25.30;10.30;;;7.20;96.60;;;;;;5100157;28;20031;-78
2024/03/07 08:25:40;;;;;;;30.75;14.52;;;7.20;96.60;;;;;;5094397;28;20056;-81
2024/03/07 08:28:06;;;;;;;35.35;15.18;;;7.20;96.60;;;;;;5099962;28;20498;-80
2024/03/07 08:30:32;;;;;;;26.45;12.38;;;7.10;96.70;;;;;;5095145;28;20035;-79
2024/03/07 08:33:01;;;;;;;24.15;11.45;;;7.20;96.50;;;;;;5088779;28;20390;-80
2024/03/07 08:35:28;;;;;;;24.65;12.88;;;7.20;96.60;;;;;;5092115;28;20119;-79
2024/03/07 08:37:57;;;;;;;29.23;13.98;;;7.20;96.60;;;;;;5103197;28;20118;-81
2024/03/07 08:40:30;;;;;;;31.85;13.93;;;7.20;96.60;;;;;;5092580;28;20065;-79
2024/03/07 08:42:57;;;;;;;32.78;15.80;;;7.20;96.70;;;;;;5100383;28;20039;-79
2024/03/07 08:45:23;;;;;;;35.78;18.85;;;7.20;96.70;;;;;;5094853;28;20440;-75
2024/03/07 08:47:50;;;;;;;27.52;13.18;;;7.30;96.60;;;;;;5090037;28;20548;-79
2024/03/07 08:50:17;;;;;;;16.52;7.13;;;7.30;96.70;;;;;;5089913;28;20379;-79
2024/03/07 08:52:47;;;;;;;19.40;7.65;;;7.30;96.50;;;;;;5088811;28;20066;-80
2024/03/07 08:55:22;;;;;;;15.52;7.35;;;7.30;96.60;;;;;;5097610;28;20081;-80
2024/03/07 08:57:49;;;;;;;25.20;11.18;;;7.30;96.50;;;;;;5104374;28;20042;-80
2024/03/07 09:00:22;;;;;;;23.60;11.52;;;7.30;96.60;;;;;;5107478;28;20471;-81
2024/03/07 09:02:52;;;;;;;36.15;14.00;;;7.30;96.50;;;;;;5089001;28;20032;-79
2024/03/07 09:05:20;;;;;;;34.47;16.10;;;7.40;96.60;;;;;;5092459;28;20027;-79
2024/03/07 09:07:46;;;;;;;34.92;16.42;;;7.40;96.60;;;;;;5088290;28;20032;-78
2024/03/07 09:10:15;;;;;;;10.52;5.03;;;7.40;96.60;;;;;;5092515;28;20032;-76
2024/03/07 09:12:41;;;;;;;28.23;13.10;;;7.40;96.60;;;;;;5087322;28;20036;-76
2024/03/07 09:15:10;;;;;;;30.15;14.82;;;7.40;96.50;;;;;;5089356;28;20545;-76
2024/03/07 09:17:39;;;;;;;18.83;9.43;;;7.40;96.60;;;;;;5094815;28;20027;-76
2024/03/07 09:20:06;;;;;;;29.98;12.57;;;7.40;96.70;;;;;;5091106;28;20031;-75
2024/03/07 09:22:32;;;;;;;28.83;14.15;;;7.50;96.70;;;;;;5089627;28;20192;-78
2024/03/07 09:24:58;;;;;;;30.63;14.23;;;7.50;96.60;;;;;;5093547;28;20111;-78
2024/03/07 09:27:27;;;;;;;26.70;13.02;;;7.50;96.60;;;;;;5096390;28;20059;-78
2024/03/07 09:29:53;;;;;;;21.45;9.75;;;7.50;96.60;;;;;;5087280;28;20048;-78
2024/03/07 09:32:21;;;;;;;34.17;16.50;;;7.60;96.50;;;;;;5095785;28;20020;-78
2024/03/07 09:34:47;;;;;;;35.80;15.60;;;7.60;96.50;;;;;;5092997;28;20052;-78
2024/03/07 09:37:13;;;;;;;30.30;14.73;;;7.70;96.40;;;;;;5088339;28;20024;-78
2024/03/07 09:39:38;;;;;;;22.40;11.63;;;7.70;96.40;;;;;;5091879;28;20049;-78
2024/03/07 09:42:13;;;;;;;19.55;10.30;;;7.70;96.20;;;;;;5108487;28;20104;-78
2024/03/07 09:44:40;;;;;;;31.17;15.10;;;7.70;96.40;;;;;;5100853;28;20039;-78
2024/03/07 09:47:05;;;;;;;25.63;13.13;;;7.70;96.40;;;;;;5088284;28;20040;-78
2024/03/07 09:49:35;;;;;;;28.02;13.15;;;7.70;96.40;;;;;;5091245;28;20027;-78
2024/03/07 09:52:08;;;;;;;23.42;10.27;;;7.70;96.40;;;;;;5098793;28;20032;-78
2024/03/07 09:54:34;;;;;;;20.90;9.80;;;7.80;96.40;;;;;;5091374;28;20511;-82
2024/03/07 09:57:02;;;;;;;29.48;13.85;;;7.80;96.40;;;;;;5103347;28;20050;-80
2024/03/07 09:59:32;;;;;;;35.72;17.08;;;7.80;96.40;;;;;;5098294;28;20036;-80
2024/03/07 10:01:59;;;;;;;38.10;17.15;;;7.80;96.40;;;;;;5102577;28;20039;-80
2024/03/07 10:04:48;;;;;;;14.93;6.82;;;7.90;96.40;;;;;;5100295;28;20134;-80
2024/03/07 10:07:16;;;;;;;32.90;15.82;;;7.80;96.20;;;;;;5096394;28;20526;-80
2024/03/07 10:09:51;;;;;;;37.10;14.70;;;7.80;96.40;;;;;;5105475;28;20031;-81
2024/03/07 10:12:18;;;;;;;33.03;14.40;;;7.90;96.40;;;;;;5094377;28;20043;-79
2024/03/07 10:15:12;;;;;;;24.77;10.98;;;7.90;96.30;;;;;;5097104;28;20032;-81
2024/03/07 10:17:40;;;;;;;35.70;17.40;;;7.90;96.40;;;;;;5101223;28;20111;-78
2024/03/07 10:20:09;;;;;;;32.63;14.98;;;7.90;96.50;;;;;;5101942;28;20040;-78
2024/03/07 10:22:37;;;;;;;26.75;13.35;;;7.90;96.40;;;;;;5094483;28;20031;-78
2024/03/07 10:25:03;;;;;;;40.20;13.93;;;7.90;96.40;;;;;;5099489;28;20066;-78
2024/03/07 10:27:29;;;;;;;33.80;16.70;;;8.00;96.40;;;;;;5096396;28;20123;-78
2024/03/07 10:29:55;;;;;;;20.25;10.57;;;8.00;96.40;;;;;;5111826;28;20119;-78
2024/03/07 10:32:25;;;;;;;27.92;14.18;;;8.00;96.30;;;;;;5095026;28;20106;-78
2024/03/07 10:34:52;;;;;;;6.82;3.53;;;8.00;96.50;;;;;;5100560;28;20081;-78
2024/03/07 10:37:20;;;;;;;29.05;15.13;;;8.00;96.40;;;;;;5105440;28;20629;-76
2024/03/07 10:39:52;;;;;;;29.38;14.75;;;8.00;96.50;;;;;;5096357;28;20104;-75
2024/03/07 10:42:19;;;;;;;24.92;12.07;;;8.10;96.60;;;;;;5105278;28;20138;-76
2024/03/07 10:44:47;;;;;;;20.27;10.25;;;8.00;96.50;;;;;;5094671;28;20039;-76
2024/03/07 10:47:21;;;;;;;31.27;13.43;;;8.10;96.40;;;;;;5090248;28;20040;-77
2024/03/07 10:50:12;;;;;;;19.45;8.18;;;8.00;96.30;;;;;;5094740;28;20378;-75
2024/03/07 10:52:54;;;;;;;28.77;13.80;;;8.00;96.30;;;;;;5091563;28;20031;-77
2024/03/07 10:55:46;;;;;;;25.63;12.18;;;8.00;96.60;;;;;;5091418;28;20496;-76
2024/03/07 10:58:35;;;;;;;24.33;11.52;;;8.10;96.60;;;;;;5101314;28;20046;-76
2024/03/07 11:01:03;;;;;;;16.63;6.97;;;8.10;96.60;;;;;;5089402;28;20115;-76
2024/03/07 11:03:32;;;;;;;16.98;7.60;;;8.00;96.40;;;;;;5091506;28;20097;-76
2024/03/07 11:06:00;;;;;;;17.08;8.80;;;8.10;96.40;;;;;;5100377;28;20032;-76
2024/03/07 11:08:27;;;;;;;31.38;13.57;;;8.00;96.50;;;;;;5108740;28;20372;-76
2024/03/07 11:10:53;;;;;;;25.70;10.02;;;8.00;96.50;;;;;;5104741;28;20043;-76
2024/03/07 11:13:19;;;;;;;26.13;12.68;;;8.10;96.60;;;;;;5101546;28;20023;-76
2024/03/07 11:15:51;;;;;;;23.65;11.30;;;8.10;96.70;;;;;;5090541;28;20044;-76
2024/03/07 11:18:17;;;;;;;16.55;8.00;;;8.10;96.50;;;;;;5091809;28;20024;-76
2024/03/07 11:20:46;;;;;;;28.60;13.18;;;8.10;96.60;;;;;;5101698;28;20024;-76
2024/03/07 11:23:41;;;;;;;24.92;12.10;;;8.20;96.60;;;;;;5090352;28;20059;-76
2024/03/07 11:26:11;;;;;;;15.73;7.68;;;8.20;96.70;;;;;;5100961;28;20383;-76
2024/03/07 11:28:41;;;;;;;33.40;16.50;;;8.20;96.60;;;;;;5099586;28;20019;-77
2024/03/07 11:31:09;;;;;;;31.52;15.35;;;8.20;96.80;;;;;;5106554;28;20599;-77
2024/03/07 11:33:40;;;;;;;29.63;14.60;;;8.20;96.80;;;;;;5108942;28;20032;-77
2024/03/07 11:36:12;;;;;;;30.48;13.77;;;8.20;96.80;;;;;;5088954;28;20054;-78
2024/03/07 11:38:44;;;;;;;24.90;10.20;;;8.30;96.80;;;;;;5093443;28;20059;-77
2024/03/07 11:41:13;;;;;;;26.42;12.65;;;8.30;96.80;;;;;;5086807;28;20436;-78
2024/03/07 11:43:40;;;;;;;27.58;12.70;;;8.40;96.80;;;;;;5101097;28;20039;-79
2024/03/07 11:46:11;;;;;;;21.33;10.57;;;8.40;96.80;;;;;;5096864;28;20035;-77
2024/03/07 11:48:41;;;;;;;20.23;10.05;;;8.30;96.80;;;;;;5094549;28;20036;-77
2024/03/07 11:51:10;;;;;;;16.95;8.25;;;8.30;96.80;;;;;;5095154;28;20432;-77
2024/03/07 11:53:38;;;;;;;26.35;12.00;;;8.20;97.00;;;;;;5093046;28;20052;-77
2024/03/07 11:56:09;;;;;;;24.40;11.95;;;8.20;97.20;;;;;;5096157;28;20040;-77
2024/03/07 11:58:41;;;;;;;25.92;12.48;;;8.30;97.30;;;;;;5090018;28;20024;-77
2024/03/07 12:01:10;;;;;;;23.52;11.02;;;8.30;97.20;;;;;;5096960;28;20036;-77
2024/03/07 12:03:37;;;;;;;28.00;12.60;;;8.30;97.10;;;;;;5103599;28;20024;-77
2024/03/07 12:06:03;;;;;;;20.77;10.35;;;8.30;97.30;;;;;;5105907;28;20035;-77
2024/03/07 12:08:29;;;;;;;28.98;13.52;;;8.40;97.20;;;;;;5090334;28;20353;-76
2024/03/07 12:10:56;;;;;;;28.05;11.95;;;8.40;97.30;;;;;;5101042;28;20038;-77
2024/03/07 12:13:24;;;;;;;26.00;12.52;;;8.40;97.20;;;;;;5093930;28;20031;-77
2024/03/07 12:15:51;;;;;;;30.88;13.52;;;8.50;97.30;;;;;;5103753;28;20073;-77
2024/03/07 12:18:20;;;;;;;25.50;11.98;;;8.40;97.40;;;;;;5097981;28;20076;-77
2024/03/07 12:20:55;;;;;;;24.58;11.75;;;8.40;97.40;;;;;;5104743;28;20045;-77
2024/03/07 12:23:25;;;;;;;24.63;12.80;;;8.50;97.40;;;;;;5097602;28;20034;-78
2024/03/07 12:26:04;;;;;;;25.20;13.32;;;8.50;97.60;;;;;;5093089;28;20036;-78
2024/03/07 12:28:38;;;;;;;20.13;11.70;;;8.50;97.70;;;;;;5093550;28;20028;-80
2024/03/07 12:31:04;;;;;;;25.73;12.98;;;8.50;97.50;;;;;;5089863;28;20040;-76
2024/03/07 12:33:32;;;;;;;26.20;13.27;;;8.50;97.60;;;;;;5096533;28;20020;-81
2024/03/07 12:36:09;;;;;;;28.48;13.60;;;8.60;97.60;;;;;;5089158;28;20036;-84
2024/03/07 12:38:36;;;;;;;30.27;14.55;;;8.60;97.70;;;;;;5089363;28;20031;-78
2024/03/07 12:41:16;;;;;;;25.08;13.45;;;8.60;97.70;;;;;;5095118;28;20043;-78
2024/03/07 12:43:42;;;;;;;35.38;13.52;;;8.50;97.80;;;;;;5089483;28;20020;-79